Texas General Land Office
 Texas General Land Office
 George P. Bush, Commissioner

 Oil Spill Prevention
 & Response

Texas Automated Buoy System
Real Time Ocean Observations
Supporting Oil Spill Prevention and
Response since 1995
Geochemical and Environmental Research Group

NOAA - NDBC Buoy 42019 -- Texas Automated Buoy System

NBDC Buoy 42019
Freeport, TX
Conditions at 08/18/2018 07:20 UTC (08/18/2018 02:20 CDT)
27° 54.7830'N   95° 21.6000'W
60nm South of Freeport, TX
Anemometer height: 5m
Water Depth: 269 feet (82 meters)
Wind: 6.0 m/s (11.7 kts)
          From 170°T (S)
Wind Gust: 7.00 m/s (13.6 kts) Pressure: 1017.1 mb (30.03 inHg)
Air Temp: 29°C (85 °F) Dewpoint: 26°C (78°F) Relative Humidity: 80%
Sea Surf Temp: 30 °C (86 °F) Wave Height: -99.0m (-324.8 ft) Wave Period: -99
  


IMPORTANT: Notice to Mariners


   Date      Time    Speed     Dir   Gust    AtmPr   AirT   DewPt   WaterT  RelH  WvHt  WvPer
          |  (UTC) | (m/s) |  (°T) | (m/s) |  (mb) |  (°C) |  (°C) |  (°C) | (%) | (m) | (s) |
==========+========+=======+=======+=======+=======+=======+=======+=======+=====+=====+=====+
08/18/2018 00:00:00     5.0     140     6.0 1016.40    29.8    25.1    30.4    75 -99.0  -99
08/18/2018 00:10:00     5.0     140     6.0 1016.20    29.7    25.3   -99.0    77 -99.0  -99
08/18/2018 00:20:00     5.0     140     6.0 1016.40    29.7    25.2    30.3    76 -99.0  -99
08/18/2018 00:30:00     5.0     140     6.0 1016.30    29.7    24.8    30.2    75 -99.0  -99
08/18/2018 00:40:00     5.0     150     6.0 1016.50    29.7    24.7    30.2    74 -99.0  -99
08/18/2018 00:50:00     5.0     150     6.0 1016.60    29.6    25.1    30.2    76   0.5    5
08/18/2018 01:00:00     5.0     150     6.0 1016.60    29.6    25.1   -99.0    76 -99.0  -99
08/18/2018 01:10:00     5.0     140     6.0 1016.70    29.5    25.2    30.2    77 -99.0  -99
08/18/2018 01:20:00     5.0     140     6.0 1016.70    29.4    24.9    30.2    76 -99.0  -99
08/18/2018 01:30:00     5.0     140     6.0 1016.70    29.5    25.3    30.1    78 -99.0  -99
08/18/2018 01:40:00     6.0     150     7.0 1016.60    29.4    25.4    30.1    79 -99.0  -99
08/18/2018 01:50:00     6.0     150     7.0 1016.60    29.5    25.2    30.1    77   0.5    5
08/18/2018 02:00:00     6.0     140     7.0 1016.70    29.5    25.3    30.1    78 -99.0  -99
08/18/2018 02:10:00     6.0     140     7.0 1016.80    29.5    25.2    30.1    77 -99.0  -99
08/18/2018 02:20:00     6.0     150     8.0 1016.90    29.6    25.1    30.1    76 -99.0  -99
08/18/2018 02:30:00     7.0     160     8.0 1016.90    29.6    25.1    30.0    76 -99.0  -99
08/18/2018 02:40:00     7.0     150     8.0 1016.90    29.6    25.6    30.0    79 -99.0  -99
08/18/2018 02:50:00     7.0     150     8.0 1017.10    29.5    25.5    30.0    79   0.5    5
08/18/2018 03:00:00     7.0     150     8.0 1017.50    29.5    25.7    30.0    80 -99.0  -99
08/18/2018 03:10:00     6.0     150     8.0 1017.40    29.5    25.7    30.0    80 -99.0  -99
08/18/2018 03:20:00     6.0     160     8.0 1017.40    29.5    25.8    30.0    80 -99.0  -99
08/18/2018 03:30:00     6.0     150     8.0 1017.50    29.5    25.6    30.0    79 -99.0  -99
08/18/2018 03:40:00     6.0     150     8.0 1017.60    29.5    25.5    29.9    79 -99.0  -99
08/18/2018 03:50:00     6.0     150     8.0 1017.70    29.5    25.2    30.0    77   0.6    5
08/18/2018 04:00:00     6.0     160     7.0 1017.70    29.6    25.3    29.9    77 -99.0  -99
08/18/2018 04:10:00     7.0     160     8.0 1017.90    29.5    25.2    29.9    77 -99.0  -99
08/18/2018 04:20:00     7.0     160     8.0 1017.90    29.5    25.4    29.9    78 -99.0  -99
08/18/2018 04:30:00     6.0     160     7.0 1017.90    29.5    25.5    29.9    79 -99.0  -99
08/18/2018 04:40:00     6.0     160     7.0 1017.90    29.5    25.1    29.9    77 -99.0  -99
08/18/2018 04:50:00     6.0     160     7.0 1017.90    29.5    25.0    29.9    76   0.6    3
08/18/2018 05:00:00     6.0     160     7.0 1017.90    29.6    25.3    29.9    77 -99.0  -99
08/18/2018 05:10:00     6.0     170     7.0 1017.80    29.5    25.2    29.9    77 -99.0  -99
08/18/2018 05:20:00     6.0     160     8.0 1017.90    29.5    25.3    29.9    78 -99.0  -99
08/18/2018 05:30:00     6.0     170     7.0 1017.80    29.5    25.4   -99.0    78 -99.0  -99
08/18/2018 05:40:00     6.0     170     8.0 1017.60    29.4    25.4   -99.0    79 -99.0  -99
08/18/2018 05:50:00     6.0     170     8.0 1017.60    29.4    25.4    29.9    79   0.7    5
08/18/2018 06:00:00     6.0     170     7.0 1017.60    29.5    25.7   -99.0    80 -99.0  -99
08/18/2018 06:10:00     7.0     170     8.0 1017.40    29.5    25.5    29.9    79 -99.0  -99
08/18/2018 06:20:00     7.0     170     8.0 1017.30    29.5    25.2    29.8    77 -99.0  -99
08/18/2018 06:30:00     6.0     170     8.0 1017.20    29.4    25.3    29.8    78 -99.0  -99
08/18/2018 06:40:00     6.0     170     7.0 1017.20    29.4    25.4    29.8    79 -99.0  -99
08/18/2018 06:50:00     6.0     170     7.0 1017.20    29.4    25.4    29.8    79   0.6    4
08/18/2018 07:00:00     6.0     170     7.0 1017.20    29.4    25.6    29.8    80 -99.0  -99
08/18/2018 07:10:00     6.0     160     7.0 1017.10    29.4    25.5    29.8    79 -99.0  -99
08/18/2018 07:20:00     6.0     170     7.0 1017.10    29.4    25.6    29.8    80 -99.0  -99